Time;durP1;ratioP1;P1;durP2;ratioP2;P2;SDS_P1;SDS_P2;PMS_P1;PMS_P2;Temp;Humidity;BMP_temperature;BMP_pressure;BME280_temperature;BME280_humidity;BME280_pressure;Samples;Min_cycle;Max_cycle;Signal;HPM_P1;HPM_P2
2020/12/05 00:02:15;;;;;;;31.37;20.53;;;;;;;5.33;65.04;94144.06;5076365;28;20190;-69
2020/12/05 00:04:41;;;;;;;32.90;19.80;;;;;;;5.59;65.08;94142.53;5077505;28;20448;-69
2020/12/05 00:07:07;;;;;;;31.33;19.57;;;;;;;5.72;64.12;94153.94;5076737;28;20428;-68
2020/12/05 00:09:33;;;;;;;31.87;20.40;;;;;;;5.71;63.89;94165.34;5061256;28;20221;-68
2020/12/05 00:12:11;;;;;;;31.70;19.20;;;;;;;5.80;63.81;94200.53;5072492;28;20439;-68
2020/12/05 00:14:37;;;;;;;26.47;17.97;;;;;;;5.82;63.73;94204.56;5080365;28;20329;-70
2020/12/05 00:17:03;;;;;;;31.20;19.07;;;;;;;5.48;64.35;94187.25;5084116;28;20911;-67
2020/12/05 00:19:29;;;;;;;32.17;19.63;;;;;;;5.34;65.06;94161.22;5077299;28;20535;-68
2020/12/05 00:21:56;;;;;;;40.67;20.70;;;;;;;5.46;64.76;94156.28;5080872;28;20464;-67
2020/12/05 00:24:23;;;;;;;35.77;20.97;;;;;;;5.06;65.19;94135.38;5065593;28;20183;-69
2020/12/05 00:26:49;;;;;;;31.23;20.00;;;;;;;4.66;66.84;94112.63;5056807;28;20456;-68
2020/12/05 00:29:16;;;;;;;34.50;20.30;;;;;;;4.79;66.63;94116.28;5071880;28;20874;-68
2020/12/05 00:31:42;;;;;;;38.80;21.03;;;;;;;5.05;66.11;94118.97;5079024;28;20428;-67
2020/12/05 00:34:07;;;;;;;30.40;20.13;;;;;;;5.17;65.74;94134.00;5060653;28;20703;-68
2020/12/05 00:36:33;;;;;;;35.30;20.57;;;;;;;5.07;65.24;94131.78;5077755;28;20191;-67
2020/12/05 00:38:59;;;;;;;37.27;21.43;;;;;;;4.98;66.83;94120.75;5068737;28;20202;-68
2020/12/05 00:41:25;;;;;;;33.63;21.73;;;;;;;5.29;65.65;94119.47;5077558;28;20620;-67
2020/12/05 00:43:50;;;;;;;32.30;21.10;;;;;;;5.33;65.17;94141.44;5075866;28;20204;-69
2020/12/05 00:46:16;;;;;;;33.30;20.83;;;;;;;5.18;65.31;94156.38;5076994;28;20198;-67
2020/12/05 00:48:42;;;;;;;36.67;21.97;;;;;;;4.34;68.82;94155.50;5065798;28;20237;-67
2020/12/05 00:51:11;;;;;;;42.57;23.57;;;;;;;4.23;70.18;94125.69;5076983;28;20226;-69
2020/12/05 00:53:37;;;;;;;36.37;21.80;;;;;;;4.52;69.78;94103.94;5077797;28;20646;-67
2020/12/05 00:56:02;;;;;;;38.50;22.50;;;;;;;4.66;68.87;94107.44;5076640;28;20435;-68
2020/12/05 00:58:34;;;;;;;40.00;21.97;;;;;;;4.78;68.69;94114.69;5078385;28;20202;-69
2020/12/05 01:01:06;;;;;;;37.90;22.93;;;;;;;4.94;68.70;94123.94;5067357;28;20191;-66
2020/12/05 01:03:32;;;;;;;50.17;23.17;;;;;;;4.84;68.43;94108.69;5072348;28;20425;-67
2020/12/05 01:05:58;;;;;;;32.50;20.97;;;;;;;4.80;68.82;94118.66;5077247;28;20801;-67
2020/12/05 01:08:23;;;;;;;33.63;21.07;;;;;;;4.91;68.88;94143.28;5075480;28;20202;-68
2020/12/05 01:10:49;;;;;;;35.97;22.50;;;;;;;5.13;68.08;94159.53;5074523;28;20551;-68
2020/12/05 01:13:15;;;;;;;34.57;22.10;;;;;;;4.96;68.83;94174.63;5077039;28;20190;-68
2020/12/05 01:15:41;;;;;;;33.67;21.23;;;;;;;5.44;68.10;94178.25;5074682;28;20803;-68
2020/12/05 01:18:07;;;;;;;35.23;22.33;;;;;;;5.63;67.82;94185.31;5068778;28;20306;-68
2020/12/05 01:20:33;;;;;;;35.90;21.70;;;;;;;5.76;67.24;94200.13;5035752;28;20277;-68
2020/12/05 01:22:58;;;;;;;29.77;20.20;;;;;;;5.83;67.13;94213.13;5075303;28;20428;-66
2020/12/05 01:25:24;;;;;;;37.03;20.80;;;;;;;5.78;67.15;94223.34;5076378;28;20433;-68
2020/12/05 01:27:50;;;;;;;36.20;21.87;;;;;;;5.80;67.73;94226.53;5037661;28;20203;-66
2020/12/05 01:30:16;;;;;;;28.03;19.70;;;;;;;5.70;67.79;94239.91;5075454;28;20198;-68
2020/12/05 01:32:42;;;;;;;33.97;21.63;;;;;;;5.71;67.76;94248.47;5076621;28;20187;-67
2020/12/05 01:35:07;;;;;;;34.20;21.80;;;;;;;5.67;67.97;94242.88;5079418;28;20450;-68
2020/12/05 01:37:33;;;;;;;36.30;21.50;;;;;;;5.43;68.61;94237.19;5060992;28;20197;-67
2020/12/05 01:39:59;;;;;;;34.37;22.13;;;;;;;5.44;69.17;94222.41;5077830;28;20178;-67
2020/12/05 01:42:24;;;;;;;34.30;22.20;;;;;;;5.01;70.63;94234.56;5073634;28;20560;-67
2020/12/05 01:44:50;;;;;;;32.20;22.50;;;;;;;4.92;70.78;94241.69;5079629;28;20194;-69
2020/12/05 01:47:16;;;;;;;35.80;21.50;;;;;;;5.01;70.70;94236.34;5081114;28;20589;-68
2020/12/05 01:49:42;;;;;;;40.40;23.03;;;;;;;5.14;70.08;94252.00;5074940;28;20222;-68
2020/12/05 01:52:08;;;;;;;36.73;23.20;;;;;;;4.94;71.45;94238.13;5072953;28;20566;-68
2020/12/05 01:54:35;;;;;;;33.97;23.27;;;;;;;4.71;71.93;94239.94;5072846;28;20483;-68
2020/12/05 01:57:02;;;;;;;32.33;20.83;;;;;;;4.83;71.29;94242.84;5049902;28;20189;-67
2020/12/05 01:59:28;;;;;;;30.70;21.40;;;;;;;4.73;71.44;94250.13;5061952;28;20481;-67
2020/12/05 02:02:02;;;;;;;31.63;21.37;;;;;;;4.91;70.17;94273.81;5081733;28;20932;-67
2020/12/05 02:04:48;;;;;;;29.67;20.00;;;;;;;4.13;72.71;94263.38;5033620;28;20457;-68
2020/12/05 02:07:53;;;;;;;26.90;18.80;;;;;;;4.11;72.03;94254.97;5074336;28;20429;-67
2020/12/05 02:10:24;;;;;;;28.43;19.03;;;;;;;4.37;71.33;94264.81;5076290;28;20471;-68
2020/12/05 02:13:20;;;;;;;25.87;17.13;;;;;;;4.12;72.51;94264.38;5078142;28;20436;-68
2020/12/05 02:15:47;;;;;;;27.70;17.13;;;;;;;4.22;71.58;94275.22;5057764;28;20461;-67
2020/12/05 02:18:13;;;;;;;26.97;18.13;;;;;;;3.98;72.57;94297.91;5078783;28;20452;-67
2020/12/05 02:20:39;;;;;;;25.73;16.73;;;;;;;4.15;72.15;94308.88;5070957;28;20425;-68
2020/12/05 02:23:11;;;;;;;31.30;19.27;;;;;;;4.02;72.52;94334.66;5061046;28;20190;-68
2020/12/05 02:25:37;;;;;;;28.93;19.50;;;;;;;4.12;72.54;94324.78;5061362;28;20416;-69
2020/12/05 02:28:05;;;;;;;28.60;18.57;;;;;;;4.19;71.59;94329.22;5078162;28;20482;-66
2020/12/05 02:30:32;;;;;;;27.10;17.90;;;;;;;4.00;72.37;94344.38;5061250;28;20495;-67
2020/12/05 02:32:59;;;;;;;25.10;17.57;;;;;;;4.12;72.86;94336.94;5061076;28;20829;-68
2020/12/05 02:35:26;;;;;;;23.37;16.33;;;;;;;4.36;71.49;94335.00;5061849;28;20907;-66
2020/12/05 02:37:53;;;;;;;25.73;16.80;;;;;;;4.42;70.68;94335.06;5076440;28;20448;-68
2020/12/05 02:40:19;;;;;;;23.87;16.60;;;;;;;4.39;71.08;94334.63;5058742;28;20646;-69
2020/12/05 02:42:45;;;;;;;21.80;15.90;;;;;;;4.64;70.23;94347.25;5074810;28;20432;-68
2020/12/05 02:45:10;;;;;;;22.33;16.90;;;;;;;4.54;70.80;94360.50;5075725;28;20348;-69
2020/12/05 02:47:36;;;;;;;22.40;16.73;;;;;;;4.02;72.52;94375.28;5077044;28;20253;-68
2020/12/05 02:50:04;;;;;;;21.33;15.80;;;;;;;4.52;70.76;94388.44;5071863;28;20346;-69
2020/12/05 02:52:29;;;;;;;23.73;16.00;;;;;;;4.67;70.02;94417.72;5060616;28;20197;-68
2020/12/05 02:54:55;;;;;;;22.33;16.03;;;;;;;4.78;69.57;94436.41;5077931;28;20425;-68
2020/12/05 02:57:21;;;;;;;25.00;17.13;;;;;;;4.80;69.48;94452.56;5077523;28;20183;-67
2020/12/05 02:59:46;;;;;;;22.33;14.80;;;;;;;4.76;69.18;94462.50;5071090;28;20179;-66
2020/12/05 03:02:12;;;;;;;22.97;15.33;;;;;;;4.86;68.89;94459.63;5077107;28;20786;-67
2020/12/05 03:04:38;;;;;;;19.23;14.03;;;;;;;4.56;69.96;94462.28;5078578;28;20186;-66
2020/12/05 03:07:05;;;;;;;19.30;14.00;;;;;;;4.71;68.81;94462.28;5070134;28;20232;-68
2020/12/05 03:09:32;;;;;;;19.90;14.20;;;;;;;4.41;70.12;94472.69;5074702;28;20214;-68
2020/12/05 03:11:58;;;;;;;17.57;13.40;;;;;;;4.66;69.28;94469.78;5061332;28;20851;-69
2020/12/05 03:14:24;;;;;;;16.40;13.57;;;;;;;4.54;69.32;94482.41;5078943;28;20420;-67
2020/12/05 03:16:50;;;;;;;16.40;13.33;;;;;;;4.39;70.28;94470.28;5078648;28;20265;-69
2020/12/05 03:19:15;;;;;;;18.13;12.73;;;;;;;4.51;69.18;94464.63;5071675;28;20202;-67
2020/12/05 03:21:41;;;;;;;16.90;12.80;;;;;;;4.02;70.88;94453.88;5078818;28;20182;-70
2020/12/05 03:24:07;;;;;;;18.10;13.40;;;;;;;4.06;71.14;94439.53;5078435;28;20232;-67
2020/12/05 03:26:32;;;;;;;18.83;13.37;;;;;;;4.19;71.24;94432.91;5078327;28;20185;-68
2020/12/05 03:28:58;;;;;;;16.70;13.03;;;;;;;3.79;71.95;94428.81;5081588;28;20297;-69
2020/12/05 03:34:10;;;;;;;17.07;12.40;;;;;;;4.56;70.02;94464.88;5077287;28;20902;-68
2020/12/05 03:36:36;;;;;;;17.60;13.10;;;;;;;3.75;72.81;94481.97;5078368;28;20425;-68
2020/12/05 03:39:03;;;;;;;18.67;12.70;;;;;;;4.05;71.51;94494.94;5068902;28;20769;-68
2020/12/05 03:41:29;;;;;;;19.60;13.70;;;;;;;4.46;70.53;94499.69;5080319;28;20428;-69
2020/12/05 03:43:54;;;;;;;17.87;13.30;;;;;;;4.67;69.78;94518.09;5068207;28;20935;-68
2020/12/05 03:46:20;;;;;;;19.67;13.50;;;;;;;4.80;70.19;94509.66;5077530;28;20205;-67
2020/12/05 03:48:46;;;;;;;18.10;12.30;;;;;;;4.87;69.35;94519.13;5068278;28;20200;-68
2020/12/05 03:51:12;;;;;;;15.80;11.93;;;;;;;4.98;69.41;94510.06;5070413;28;20202;-68
2020/12/05 03:53:37;;;;;;;15.27;11.73;;;;;;;5.04;68.88;94508.53;5066963;28;20617;-68
2020/12/05 03:56:03;;;;;;;16.67;11.90;;;;;;;5.05;69.13;94503.13;5077845;28;20194;-68
2020/12/05 03:58:29;;;;;;;18.50;12.00;;;;;;;5.10;68.99;94514.78;5067243;28;20224;-68
2020/12/05 04:00:55;;;;;;;17.63;12.33;;;;;;;5.14;68.52;94518.63;5077296;28;20903;-67
2020/12/05 04:03:20;;;;;;;16.57;12.73;;;;;;;5.18;68.69;94525.03;5068316;28;20181;-67
2020/12/05 04:05:46;;;;;;;14.30;11.20;;;;;;;5.13;68.53;94527.41;5077608;28;20205;-68
2020/12/05 04:08:12;;;;;;;15.80;12.20;;;;;;;5.16;68.43;94542.63;5061302;28;20216;-69
2020/12/05 04:10:38;;;;;;;16.73;11.70;;;;;;;5.17;68.64;94544.19;5069204;28;20214;-68
2020/12/05 04:13:03;;;;;;;17.67;12.97;;;;;;;5.11;68.56;94568.31;5069543;28;20190;-68
2020/12/05 04:15:29;;;;;;;22.00;13.43;;;;;;;5.00;68.59;94559.19;5076342;28;20247;-68
2020/12/05 04:17:55;;;;;;;18.10;13.03;;;;;;;5.12;68.57;94567.31;5059636;28;20632;-67
2020/12/05 04:20:21;;;;;;;16.40;11.83;;;;;;;5.15;67.91;94565.16;5073876;28;20213;-69
2020/12/05 04:22:47;;;;;;;16.53;11.20;;;;;;;5.07;67.88;94584.25;5075824;28;20420;-68
2020/12/05 04:25:13;;;;;;;15.90;11.80;;;;;;;5.14;67.94;94597.28;5075620;28;20202;-68
2020/12/05 04:27:38;;;;;;;21.43;11.43;;;;;;;5.13;68.46;94592.28;5075227;28;20186;-68
2020/12/05 04:30:04;;;;;;;16.30;11.17;;;;;;;5.18;68.08;94593.34;5073994;28;20904;-67
2020/12/05 04:32:30;;;;;;;14.30;11.30;;;;;;;5.17;68.14;94580.53;5075347;28;20201;-66
2020/12/05 04:34:56;;;;;;;15.10;11.50;;;;;;;5.14;67.83;94570.53;5075037;28;20432;-67
2020/12/05 04:37:23;;;;;;;14.93;11.67;;;;;;;5.07;68.43;94597.22;5073184;28;20178;-66
2020/12/05 04:39:49;;;;;;;15.60;11.77;;;;;;;4.98;68.42;94589.75;5075612;28;20432;-66
2020/12/05 04:42:15;;;;;;;14.83;11.00;;;;;;;4.86;68.82;94566.81;5069241;28;21019;-66
2020/12/05 04:44:41;;;;;;;15.90;11.20;;;;;;;4.93;68.21;94553.91;5066183;28;20456;-68
2020/12/05 04:47:09;;;;;;;15.47;11.97;;;;;;;4.67;69.43;94570.78;5075169;28;20451;-68
2020/12/05 04:49:36;;;;;;;16.60;12.37;;;;;;;4.72;68.98;94565.84;5074034;28;20214;-68
2020/12/05 04:52:09;;;;;;;17.23;12.13;;;;;;;4.76;68.60;94567.13;5056683;28;20435;-66
2020/12/05 04:54:36;;;;;;;15.73;11.93;;;;;;;4.69;69.44;94589.56;5075170;28;20463;-67
2020/12/05 04:57:02;;;;;;;16.00;11.13;;;;;;;4.75;69.64;94617.41;5073624;28;20429;-67
2020/12/05 04:59:30;;;;;;;15.27;11.60;;;;;;;4.83;69.12;94608.72;5075776;28;21012;-67
2020/12/05 05:01:55;;;;;;;23.17;13.43;;;;;;;4.85;69.10;94616.31;5076026;28;20803;-67
2020/12/05 05:04:23;;;;;;;19.63;12.63;;;;;;;4.88;68.68;94634.13;5075969;28;20444;-68
2020/12/05 05:06:49;;;;;;;16.93;12.00;;;;;;;4.91;68.31;94644.16;5072351;28;20515;-68
2020/12/05 05:09:15;;;;;;;14.67;11.57;;;;;;;4.80;68.78;94666.16;5073273;28;20449;-67
2020/12/05 05:11:53;;;;;;;16.80;12.10;;;;;;;4.78;69.39;94680.31;5078208;28;20561;-67
2020/12/05 05:14:19;;;;;;;15.40;11.30;;;;;;;4.85;68.84;94674.19;5063924;28;20221;-68
2020/12/05 05:16:45;;;;;;;16.70;11.93;;;;;;;4.89;68.67;94687.66;5076254;28;20447;-68
2020/12/05 05:19:22;;;;;;;15.63;11.90;;;;;;;4.94;68.87;94689.69;5063709;28;20201;-68
2020/12/05 05:21:48;;;;;;;17.60;11.33;;;;;;;4.93;68.71;94673.31;5074856;28;20824;-68
2020/12/05 05:24:15;;;;;;;14.60;10.80;;;;;;;4.98;68.86;94678.78;5074216;28;20433;-67
2020/12/05 05:26:42;;;;;;;15.47;10.90;;;;;;;4.98;68.74;94690.97;5074724;28;20424;-68
2020/12/05 05:29:31;;;;;;;17.73;10.67;;;;;;;4.96;68.72;94703.31;5073073;28;20432;-68
2020/12/05 05:32:07;;;;;;;17.93;10.57;;;;;;;4.96;68.35;94709.28;5075553;28;20557;-68
2020/12/05 05:34:33;;;;;;;14.43;10.50;;;;;;;4.96;68.47;94708.50;5072832;28;20420;-68
2020/12/05 05:36:59;;;;;;;15.40;10.60;;;;;;;4.96;68.78;94717.09;5072516;28;20442;-68
2020/12/05 05:39:25;;;;;;;13.40;9.97;;;;;;;4.92;68.54;94721.00;5074352;28;20462;-68
2020/12/05 05:41:53;;;;;;;16.83;10.83;;;;;;;4.98;68.89;94725.50;5074052;28;20248;-68
2020/12/05 05:44:29;;;;;;;11.27;9.33;;;;;;;5.05;68.94;94733.38;5073954;28;20428;-67
2020/12/05 05:46:54;;;;;;;14.67;9.70;;;;;;;5.03;68.72;94728.38;5073508;28;20903;-68
2020/12/05 05:49:25;;;;;;;15.37;8.90;;;;;;;4.94;68.37;94742.41;5072859;28;20495;-67
2020/12/05 05:51:52;;;;;;;12.23;8.53;;;;;;;4.96;68.61;94739.66;5074717;28;20186;-68
2020/12/05 05:54:17;;;;;;;12.27;9.53;;;;;;;4.86;69.15;94739.91;5074209;28;20405;-68
2020/12/05 05:57:01;;;;;;;11.90;9.60;;;;;;;4.83;69.09;94748.84;5075503;28;20527;-67
2020/12/05 05:59:33;;;;;;;12.80;9.40;;;;;;;4.91;69.27;94737.59;5072125;28;20222;-67
2020/12/05 06:01:59;;;;;;;14.33;9.57;;;;;;;4.96;68.67;94732.66;5076300;28;20443;-68
2020/12/05 06:04:30;;;;;;;17.37;10.23;;;;;;;4.95;68.86;94732.84;5071965;28;20555;-68
2020/12/05 06:06:59;;;;;;;13.00;9.70;;;;;;;4.98;68.02;94742.88;5067955;28;20532;-67
2020/12/05 06:09:43;;;;;;;15.17;11.60;;;;;;;5.01;68.22;94717.38;5073229;28;20460;-67
2020/12/05 06:12:18;;;;;;;14.60;9.77;;;;;;;5.08;68.32;94739.03;5060731;28;20421;-67
2020/12/05 06:14:45;;;;;;;14.57;10.33;;;;;;;5.05;67.86;94739.38;5078017;28;20417;-67
2020/12/05 06:17:11;;;;;;;14.03;9.70;;;;;;;5.05;67.67;94741.97;5073006;28;20546;-67
2020/12/05 06:19:40;;;;;;;11.73;9.20;;;;;;;5.00;68.00;94767.66;5077643;28;20482;-67
2020/12/05 06:22:11;;;;;;;11.70;8.77;;;;;;;5.06;67.94;94759.16;5077028;28;20428;-68
2020/12/05 06:24:56;;;;;;;10.43;9.00;;;;;;;5.04;68.55;94781.88;5076446;28;20486;-68
2020/12/05 06:27:23;;;;;;;14.33;8.60;;;;;;;5.05;67.97;94780.91;5070690;28;20452;-68
2020/12/05 06:29:49;;;;;;;9.70;8.20;;;;;;;5.07;67.78;94776.34;5078301;28;20452;-67
2020/12/05 06:32:37;;;;;;;10.40;7.50;;;;;;;5.07;68.00;94811.91;5078476;28;20474;-67
2020/12/05 06:35:03;;;;;;;9.17;6.90;;;;;;;5.05;67.80;94816.47;5077784;28;20186;-67
2020/12/05 06:37:34;;;;;;;9.10;6.70;;;;;;;4.97;68.18;94824.31;5078405;28;20408;-68
2020/12/05 06:40:01;;;;;;;8.07;6.50;;;;;;;4.76;68.71;94818.00;5079049;28;20456;-67
2020/12/05 06:42:27;;;;;;;7.07;5.90;;;;;;;4.30;69.95;94840.34;5079507;28;20419;-67
2020/12/05 06:44:52;;;;;;;16.17;5.80;;;;;;;4.68;69.62;94847.41;5080517;28;20460;-67
2020/12/05 06:47:23;;;;;;;8.20;5.63;;;;;;;4.75;68.81;94853.53;5084381;28;20170;-68
2020/12/05 06:49:50;;;;;;;11.40;7.93;;;;;;;4.74;69.29;94844.13;5082695;28;20202;-68
2020/12/05 06:52:22;;;;;;;6.47;5.67;;;;;;;4.75;68.57;94845.75;5087524;28;20484;-68
2020/12/05 06:54:49;;;;;;;6.60;4.83;;;;;;;4.84;68.27;94843.91;5078491;28;20570;-68
2020/12/05 06:57:15;;;;;;;6.90;5.40;;;;;;;4.87;68.94;94832.34;5060562;28;20575;-68
2020/12/05 06:59:40;;;;;;;5.43;4.80;;;;;;;4.89;68.43;94856.34;5077621;28;20460;-68
2020/12/05 07:02:35;;;;;;;6.47;4.73;;;;;;;4.91;68.11;94859.59;5070415;28;20620;-68
2020/12/05 07:05:16;;;;;;;7.93;5.50;;;;;;;4.91;68.85;94862.19;5058956;28;20193;-68
2020/12/05 07:07:43;;;;;;;5.40;4.70;;;;;;;4.86;68.34;94864.47;5076775;28;20427;-68
2020/12/05 07:10:09;;;;;;;6.07;4.83;;;;;;;4.88;68.24;94863.31;5078499;28;20467;-67
2020/12/05 07:12:38;;;;;;;7.20;5.80;;;;;;;4.89;68.10;94869.31;5076523;28;20432;-67
2020/12/05 07:15:26;;;;;;;7.77;5.90;;;;;;;4.94;68.65;94846.22;5074462;28;20424;-67
2020/12/05 07:17:56;;;;;;;6.93;6.23;;;;;;;4.93;68.45;94860.19;5054858;28;20449;-67
2020/12/05 07:20:22;;;;;;;6.33;5.60;;;;;;;4.97;68.59;94843.28;5074919;28;20416;-68
2020/12/05 07:22:50;;;;;;;7.60;5.87;;;;;;;4.98;67.79;94839.72;5073647;28;20787;-68
2020/12/05 07:25:16;;;;;;;6.37;5.10;;;;;;;5.00;68.06;94837.75;5074073;28;20431;-67
2020/12/05 07:27:42;;;;;;;11.80;4.87;;;;;;;4.88;68.24;94833.97;5074194;28;20774;-67
2020/12/05 07:30:08;;;;;;;6.33;4.80;;;;;;;4.94;68.38;94840.25;5072921;28;20455;-68
2020/12/05 07:32:36;;;;;;;7.80;5.47;;;;;;;4.87;68.19;94850.50;5072546;28;20175;-67
2020/12/05 07:35:04;;;;;;;11.93;5.80;;;;;;;4.92;68.28;94846.41;5069541;28;20471;-69
2020/12/05 07:37:30;;;;;;;5.87;5.03;;;;;;;4.87;68.63;94853.91;5063574;28;20412;-68
2020/12/05 07:39:56;;;;;;;8.43;5.57;;;;;;;4.92;68.44;94864.59;5073850;28;20860;-68
2020/12/05 07:42:22;;;;;;;7.00;5.47;;;;;;;5.01;68.00;94867.94;5073562;28;20420;-68
2020/12/05 07:44:48;;;;;;;5.80;5.00;;;;;;;5.02;67.86;94868.72;5072456;28;20232;-67
2020/12/05 07:47:21;;;;;;;6.23;4.87;;;;;;;5.00;68.13;94897.47;5057569;28;20436;-68
2020/12/05 07:49:51;;;;;;;7.07;5.07;;;;;;;5.01;67.72;94895.66;5073924;28;20206;-68
2020/12/05 07:52:21;;;;;;;5.53;4.93;;;;;;;4.94;68.32;94894.75;5074160;28;20428;-68
2020/12/05 07:54:57;;;;;;;7.37;5.20;;;;;;;5.01;67.76;94899.09;5071394;28;20421;-67
2020/12/05 07:57:27;;;;;;;9.13;4.87;;;;;;;5.04;67.66;94887.53;5073693;28;20421;-68
2020/12/05 08:00:13;;;;;;;9.73;4.93;;;;;;;5.11;68.52;94885.03;5073516;28;20841;-68
2020/12/05 08:02:47;;;;;;;7.33;5.40;;;;;;;5.12;67.78;94904.84;5057997;28;20583;-68
2020/12/05 08:05:28;;;;;;;7.73;4.80;;;;;;;5.08;68.37;94902.59;5058155;28;20431;-68
2020/12/05 08:08:00;;;;;;;12.53;4.60;;;;;;;5.17;67.69;94898.13;5072879;28;20781;-68
2020/12/05 08:10:28;;;;;;;7.90;4.50;;;;;;;5.27;68.03;94897.06;5067911;28;20452;-68
2020/12/05 08:13:03;;;;;;;4.50;4.03;;;;;;;5.33;67.81;94893.78;5072876;28;20421;-68
2020/12/05 08:15:30;;;;;;;4.90;4.40;;;;;;;5.35;67.61;94900.41;5066741;28;20428;-68
2020/12/05 08:17:58;;;;;;;5.77;4.20;;;;;;;5.27;67.13;94890.13;5064784;28;20464;-68
2020/12/05 08:20:23;;;;;;;5.00;4.23;;;;;;;5.43;67.49;94889.16;5054681;28;20417;-67
2020/12/05 08:22:49;;;;;;;6.27;4.37;;;;;;;5.50;67.42;94891.84;5071373;28;20945;-69
2020/12/05 08:25:15;;;;;;;5.10;4.13;;;;;;;5.53;66.98;94878.50;5068348;28;20178;-68
2020/12/05 08:27:41;;;;;;;5.60;4.23;;;;;;;5.54;67.35;94882.72;5070801;28;20273;-68
2020/12/05 08:30:08;;;;;;;5.53;3.27;;;;;;;5.60;66.93;94891.59;5067961;28;20456;-68
2020/12/05 08:32:34;;;;;;;3.40;3.07;;;;;;;5.33;67.43;94897.19;5033344;28;20931;-68
2020/12/05 08:35:07;;;;;;;7.07;3.30;;;;;;;5.57;66.92;94905.72;5055255;28;20516;-68
2020/12/05 08:37:33;;;;;;;3.27;2.97;;;;;;;5.52;67.45;94910.66;5072265;28;20429;-68
2020/12/05 08:39:59;;;;;;;5.53;2.90;;;;;;;5.36;67.89;94922.00;5072288;28;20424;-67
2020/12/05 08:42:26;;;;;;;3.90;2.60;;;;;;;5.29;67.51;94932.31;5059994;28;20438;-67
2020/12/05 08:44:51;;;;;;;7.20;3.13;;;;;;;5.26;68.30;94926.63;5066517;28;20435;-68
2020/12/05 08:47:17;;;;;;;11.33;3.43;;;;;;;5.15;68.54;94933.06;5071309;28;20511;-67
2020/12/05 08:49:45;;;;;;;4.20;2.97;;;;;;;5.33;67.87;94949.13;5071316;28;20194;-70
2020/12/05 08:52:12;;;;;;;3.57;2.90;;;;;;;5.48;67.35;94936.16;5071303;28;20244;-67
2020/12/05 08:54:50;;;;;;;8.83;3.97;;;;;;;5.33;67.63;94953.53;5072627;28;20421;-67
2020/12/05 08:57:17;;;;;;;6.80;3.70;;;;;;;5.04;68.80;94955.81;5072674;28;20946;-68
2020/12/05 08:59:43;;;;;;;5.20;3.40;;;;;;;4.97;68.83;94964.50;5072385;28;20455;-67
2020/12/05 09:02:09;;;;;;;6.30;4.03;;;;;;;5.13;69.13;94958.38;5054448;28;20469;-66
2020/12/05 09:04:36;;;;;;;3.30;3.00;;;;;;;5.41;68.19;94969.03;5071945;28;20420;-67
2020/12/05 09:07:13;;;;;;;3.93;3.23;;;;;;;5.55;67.67;94964.84;5072157;28;20930;-67
2020/12/05 09:09:40;;;;;;;4.13;3.20;;;;;;;5.64;67.14;94945.63;5067100;28;20456;-69
2020/12/05 09:12:10;;;;;;;18.50;13.50;;;;;;;5.68;66.78;94941.69;5072340;28;20569;-68
2020/12/05 09:14:37;;;;;;;7.97;6.13;;;;;;;5.65;67.44;94942.06;5072174;28;20947;-67
2020/12/05 09:17:03;;;;;;;4.10;3.50;;;;;;;5.84;67.02;94950.31;5071339;28;20415;-67
2020/12/05 09:19:31;;;;;;;9.90;4.57;;;;;;;6.02;66.78;94944.00;5071720;28;20440;-68
2020/12/05 09:21:57;;;;;;;5.93;4.10;;;;;;;6.17;66.08;94944.00;5072599;28;20433;-68
2020/12/05 09:24:23;;;;;;;4.47;3.33;;;;;;;6.27;66.10;94949.72;5072523;28;20421;-68
2020/12/05 09:26:58;;;;;;;5.40;4.00;;;;;;;6.29;65.68;94964.19;5069532;28;20436;-68
2020/12/05 09:29:24;;;;;;;4.80;4.00;;;;;;;6.41;65.65;94971.53;5058435;28;20447;-68
2020/12/05 09:31:56;;;;;;;12.30;8.80;;;;;;;6.33;66.13;94969.00;5070547;28;20428;-68
2020/12/05 09:34:33;;;;;;;23.63;10.83;;;;;;;6.24;66.94;94971.69;5071072;28;20519;-69
2020/12/05 09:36:58;;;;;;;6.13;3.33;;;;;;;6.28;66.86;94961.75;5071750;28;20431;-67
2020/12/05 09:39:24;;;;;;;10.83;5.63;;;;;;;5.93;67.55;94972.63;5072413;28;20436;-68
2020/12/05 09:41:49;;;;;;;11.50;6.07;;;;;;;6.05;67.02;94978.25;5072240;28;20189;-67
2020/12/05 09:44:16;;;;;;;7.27;5.70;;;;;;;6.11;66.59;94980.13;5072410;28;20177;-67
2020/12/05 09:46:42;;;;;;;7.53;6.40;;;;;;;6.09;66.18;94978.69;5052503;28;20230;-69
2020/12/05 09:49:07;;;;;;;6.40;5.30;;;;;;;6.23;66.37;94983.09;5046842;28;20871;-68
2020/12/05 09:51:33;;;;;;;9.17;5.70;;;;;;;6.30;66.24;94996.97;5041355;28;20298;-68
2020/12/05 09:53:59;;;;;;;8.30;5.00;;;;;;;6.27;66.09;95010.38;5044377;28;20206;-68
2020/12/05 09:56:24;;;;;;;10.20;6.10;;;;;;;6.28;65.97;94991.16;5036859;28;20178;-68
2020/12/05 09:58:50;;;;;;;9.93;5.60;;;;;;;6.45;65.30;94993.56;5044485;28;20204;-69
2020/12/05 10:01:16;;;;;;;13.87;6.20;;;;;;;6.48;64.81;94992.41;5033721;28;20179;-69
2020/12/05 10:03:41;;;;;;;9.13;6.27;;;;;;;6.34;65.94;94986.22;5073625;28;20186;-70
2020/12/05 10:06:07;;;;;;;7.93;5.93;;;;;;;6.03;66.44;94990.59;5060981;28;20170;-69
2020/12/05 10:08:33;;;;;;;9.03;5.47;;;;;;;6.27;66.05;94986.97;5068678;28;20207;-68
2020/12/05 10:10:58;;;;;;;7.10;6.03;;;;;;;6.23;65.89;94992.69;5067149;28;20202;-66
2020/12/05 10:13:24;;;;;;;7.97;6.67;;;;;;;6.20;66.34;94996.44;5069987;28;20220;-67
2020/12/05 10:15:50;;;;;;;23.33;7.67;;;;;;;5.91;66.93;94974.63;5076382;28;20246;-70
2020/12/05 10:18:15;;;;;;;10.90;7.13;;;;;;;6.29;65.88;94974.59;5070982;28;20681;-67
2020/12/05 10:20:41;;;;;;;10.83;7.90;;;;;;;6.30;65.51;94972.78;5074225;28;20178;-68
2020/12/05 10:23:07;;;;;;;14.57;8.03;;;;;;;6.18;65.94;94980.22;5074329;28;20174;-68
2020/12/05 10:25:32;;;;;;;14.20;9.40;;;;;;;6.12;66.55;94988.75;5075789;28;20175;-69
2020/12/05 10:27:58;;;;;;;15.27;9.63;;;;;;;5.83;67.69;94979.88;5056893;28;20221;-66
2020/12/05 10:30:24;;;;;;;18.23;10.47;;;;;;;5.79;67.96;94986.44;5076095;28;20281;-67
2020/12/05 10:32:49;;;;;;;19.27;11.43;;;;;;;5.76;68.16;95016.16;5077380;28;20657;-68
2020/12/05 10:35:15;;;;;;;18.27;11.30;;;;;;;5.75;68.04;95005.97;5043108;28;20229;-68
2020/12/05 10:37:41;;;;;;;17.07;10.70;;;;;;;5.76;68.17;95004.97;5075786;28;20675;-68
2020/12/05 10:40:07;;;;;;;18.47;12.20;;;;;;;5.72;68.23;95019.28;5077542;28;20298;-67
2020/12/05 10:42:32;;;;;;;22.63;14.03;;;;;;;5.72;67.93;95024.50;5076917;28;20182;-67
2020/12/05 10:44:58;;;;;;;22.37;14.37;;;;;;;5.77;67.66;95022.19;5058342;28;20610;-67
2020/12/05 10:47:23;;;;;;;20.87;15.37;;;;;;;5.94;67.29;95026.25;5074429;28;20198;-68
2020/12/05 10:49:49;;;;;;;23.53;14.57;;;;;;;5.94;67.35;95028.84;5074998;28;20202;-67
2020/12/05 10:52:15;;;;;;;23.47;15.93;;;;;;;5.67;68.28;95027.63;5062020;28;20233;-67
2020/12/05 10:54:40;;;;;;;20.90;14.57;;;;;;;5.59;68.37;95035.50;5076259;28;20178;-67
2020/12/05 10:57:06;;;;;;;23.27;15.33;;;;;;;5.68;68.60;95040.44;5076603;28;20213;-68
2020/12/05 10:59:32;;;;;;;24.50;15.50;;;;;;;5.66;68.67;95033.81;5076481;28;20197;-67
2020/12/05 11:01:57;;;;;;;22.13;15.20;;;;;;;5.72;67.82;95032.28;5076105;28;20183;-66
2020/12/05 11:04:23;;;;;;;28.60;14.33;;;;;;;5.71;68.47;95039.28;5076139;28;20240;-67
2020/12/05 11:06:49;;;;;;;19.23;13.97;;;;;;;5.56;69.02;95047.03;5074717;28;20184;-68
2020/12/05 11:09:14;;;;;;;15.47;12.23;;;;;;;5.35;69.79;95051.06;5071292;28;20214;-67
2020/12/05 11:11:40;;;;;;;18.83;14.10;;;;;;;5.58;69.03;95042.47;5076663;28;20657;-67
2020/12/05 11:14:06;;;;;;;16.47;12.17;;;;;;;5.76;68.39;95038.75;5073498;28;20274;-66
2020/12/05 11:16:32;;;;;;;18.43;12.43;;;;;;;5.65;68.72;95027.81;5075093;28;20178;-66
2020/12/05 11:18:57;;;;;;;20.03;13.40;;;;;;;5.71;68.71;95023.69;5074997;28;20963;-67
2020/12/05 11:21:23;;;;;;;18.53;14.07;;;;;;;5.85;68.65;95003.91;5057804;28;20178;-67
2020/12/05 11:23:49;;;;;;;24.10;14.00;;;;;;;5.98;67.79;95005.94;5074554;28;20255;-67
2020/12/05 11:26:21;;;;;;;18.13;12.80;;;;;;;6.02;67.96;95019.41;5075357;28;20185;-67
2020/12/05 11:28:47;;;;;;;19.60;12.67;;;;;;;6.17;67.60;95002.03;5073460;28;20227;-67
2020/12/05 11:31:13;;;;;;;18.67;11.60;;;;;;;6.21;66.82;95008.47;5074561;28;20568;-67
2020/12/05 11:33:39;;;;;;;14.77;12.10;;;;;;;6.29;66.90;95018.81;5074746;28;20186;-68
2020/12/05 11:36:04;;;;;;;13.90;11.30;;;;;;;6.39;66.40;95015.13;5049173;28;21013;-68
2020/12/05 11:38:30;;;;;;;15.20;10.90;;;;;;;6.42;66.69;95012.16;5031898;28;20259;-68